Etusivu
METAR-TAF:

METAR-TAF

Lentoasemat :

Marham, Englanti

Leveyspiiri: 52-39N, Pituuspiiri: 000-34E, korkeus merenpinnasta: 23 m

Tämänhetkinen sää

Tämä raportti tehtiin 46 minuuttia sitten, kello 02.50 UTC
Tuuli 4 kn etelästä
Lämpötila 9°C
Kosteus 93%
Ilmanpaine 1027 hPa
Näkyvyys: 3100 m
utua

METAR: EGYM 210250Z AUTO 17004KT 3100 BR NCD 09/08 Q1027

Aika: 04:36 (03:36 UTC)


TAF: puuttuu

Säähavainnot ja -ennusteet yli 4000 lentoasemalta (METAR- ja TAF-raportit).

Käytössä olevat sääasemat on merkitty karttaan keltaisilla ja punaisilla pisteillä.

Aseta hiiri pisteen päälle nähdäksesi sääaseman nimen.

Klikkaa sitten nähdäksesi säähavainnot ja -ennusteet.

Kartan vaihtaminen: klikkaa mustalla rastilla varustettuja vihreitä pisteitä, niin voit zoomata sisään; viivalla varustettua vihreää pistettä, niin voit zoomata ulos tai vihreitä nuolia, niin pääset viereisille kartoille.


METAR-TAF: